Terminal Aerodrome Forecast
Issued by NWS Twin Cities, MN

Home | Current Version | Previous Version | Graphics & Text | Print | Product List | Glossary On
Versions: 1 2 3 4 5 6 7 8 9 10 11 12 13 14 15 16 17 18 19 20 21 22 23 24 25 26 27 28 29
000
FTUS43 KMPX 282300
TAFMSP
TAF
KMSP 282337Z 2900/3006 19005KT P6SM FEW060 BKN250
     FM290400 27004KT P6SM SCT080 BKN250
     FM290700 32006KT P6SM SCT080 BKN250
     FM291100 36006KT 6SM BR BKN025 OVC050
     FM291300 02010KT P6SM VCSH BKN012 OVC025
     FM291900 04011KT P6SM SCT018 OVC035
     FM300000 04007KT P6SM SCT040=

USA.gov is the U.S. government's official web portal to all federal, state and local government web resources and services.